createdAt,value
2018-12-18T00:02:42.474Z,20.25
2018-12-18T00:05:30.478Z,23.00
2018-12-18T00:07:59.735Z,26.55
2018-12-18T00:10:47.734Z,24.35
2018-12-18T00:13:17.090Z,19.55
2018-12-18T00:15:46.364Z,18.95
2018-12-18T00:18:15.639Z,19.52
2018-12-18T00:20:44.922Z,13.55
2018-12-18T00:23:14.184Z,21.27
2018-12-18T00:25:43.480Z,15.70
2018-12-18T00:28:12.744Z,20.12
2018-12-18T00:30:41.996Z,21.75
2018-12-18T00:33:11.278Z,17.27
2018-12-18T00:35:40.539Z,17.82
2018-12-18T00:38:09.810Z,18.00
2018-12-18T00:40:39.065Z,24.90
2018-12-18T00:43:08.333Z,24.45
2018-12-18T00:45:37.609Z,20.00
2018-12-18T00:48:06.889Z,21.17
2018-12-18T00:50:36.147Z,17.35
2018-12-18T00:53:25.291Z,21.37
2018-12-18T00:55:54.561Z,17.90
2018-12-18T00:58:23.892Z,21.07
2018-12-18T01:00:53.158Z,22.20
2018-12-18T01:03:22.426Z,26.65
2018-12-18T01:05:51.687Z,22.27
2018-12-18T01:08:21.099Z,17.98
2018-12-18T01:10:50.355Z,21.93
2018-12-18T01:13:19.624Z,19.35
2018-12-18T01:15:48.878Z,21.37
2018-12-18T01:18:18.149Z,15.45
2018-12-18T01:20:47.405Z,15.35
2018-12-18T01:23:16.673Z,23.02
2018-12-18T01:25:45.933Z,15.75
2018-12-18T01:28:15.220Z,18.87
2018-12-18T01:30:44.483Z,18.85
2018-12-18T01:33:13.748Z,24.55
2018-12-18T01:35:43.018Z,19.12
2018-12-18T01:38:12.288Z,19.62
2018-12-18T01:40:41.559Z,17.02
2018-12-18T01:43:10.824Z,22.80
2018-12-18T01:45:40.089Z,19.85
2018-12-18T01:48:09.373Z,21.60
2018-12-18T01:50:38.640Z,18.10
2018-12-18T01:53:07.924Z,22.10
2018-12-18T01:55:37.195Z,17.90
2018-12-18T01:58:06.467Z,23.45
2018-12-18T02:00:35.732Z,15.98
2018-12-18T02:03:05.008Z,24.45
2018-12-18T02:05:34.260Z,17.82
2018-12-18T02:08:03.536Z,19.62
2018-12-18T02:10:32.796Z,10.98
2018-12-18T02:13:02.069Z,16.48
2018-12-18T02:15:31.332Z,19.55
2018-12-18T02:18:00.596Z,21.05
2018-12-18T02:20:29.847Z,18.52
2018-12-18T02:22:59.130Z,21.82
2018-12-18T02:25:28.397Z,17.85
2018-12-18T02:27:57.697Z,18.17
2018-12-18T02:30:26.961Z,18.87
2018-12-18T02:32:56.225Z,20.00
2018-12-18T02:35:25.492Z,23.02
2018-12-18T02:38:13.812Z,24.25
2018-12-18T02:40:43.083Z,16.35
2018-12-18T02:43:12.371Z,24.77
2018-12-18T02:45:41.639Z,22.87
2018-12-18T02:48:10.930Z,18.02
2018-12-18T02:50:40.194Z,15.93
2018-12-18T02:53:09.456Z,17.73
2018-12-18T02:55:38.722Z,13.88
2018-12-18T02:58:07.990Z,19.92
2018-12-18T03:00:37.265Z,19.20
2018-12-18T03:03:06.516Z,16.57
2018-12-18T03:05:35.896Z,18.05
2018-12-18T03:08:05.152Z,25.43
2018-12-18T03:10:34.463Z,14.00
2018-12-18T03:13:03.719Z,19.87
2018-12-18T03:15:32.992Z,20.30
2018-12-18T03:18:02.245Z,18.55
2018-12-18T03:20:31.516Z,16.52
2018-12-18T03:23:00.773Z,17.37
2018-12-18T03:25:31.843Z,21.75
2018-12-18T03:28:00.204Z,13.32
2018-12-18T03:30:29.482Z,17.37
2018-12-18T03:35:48.220Z,17.60
2018-12-18T03:38:17.497Z,20.25
2018-12-18T03:40:46.764Z,24.25
2018-12-18T03:43:16.013Z,23.77
2018-12-18T03:45:45.303Z,15.85
2018-12-18T03:48:14.565Z,18.98
2018-12-18T03:50:43.833Z,25.88
2018-12-18T03:53:32.697Z,20.30
2018-12-18T03:56:01.976Z,18.73
2018-12-18T03:58:31.237Z,19.35
2018-12-18T04:01:00.506Z,21.00
2018-12-18T04:03:29.764Z,16.00
2018-12-18T04:05:59.038Z,21.82
2018-12-18T04:08:28.757Z,24.90
2018-12-18T04:10:58.033Z,20.32
2018-12-18T04:13:27.292Z,11.80
2018-12-18T04:15:56.563Z,19.42
2018-12-18T04:18:25.827Z,17.02
2018-12-18T04:20:55.093Z,17.35
2018-12-18T04:23:24.351Z,22.37
2018-12-18T04:25:55.615Z,18.73
2018-12-18T04:28:24.913Z,16.23
2018-12-18T04:30:54.172Z,18.45
2018-12-18T04:33:23.446Z,24.77
2018-12-18T04:35:52.749Z,20.25
2018-12-18T04:38:22.012Z,19.82
2018-12-18T04:40:51.260Z,24.18
2018-12-18T04:43:20.532Z,23.30
2018-12-18T04:45:49.792Z,21.73
2018-12-18T04:48:30.765Z,13.00
2018-12-18T04:51:00.023Z,24.15
2018-12-18T04:53:29.301Z,17.57
2018-12-18T04:55:58.563Z,20.85
2018-12-18T04:58:27.833Z,18.32
2018-12-18T05:00:57.116Z,17.50
2018-12-18T05:03:26.392Z,14.40
2018-12-18T05:05:55.675Z,17.45
2018-12-18T05:08:24.923Z,15.55
2018-12-18T05:10:54.189Z,17.70
2018-12-18T05:13:23.460Z,19.90
2018-12-18T05:15:52.724Z,13.28
2018-12-18T05:18:22.016Z,15.53
2018-12-18T05:20:51.293Z,12.10
2018-12-18T05:23:20.553Z,20.23
2018-12-18T05:25:49.813Z,13.38
2018-12-18T05:28:19.096Z,18.85
2018-12-18T05:30:48.358Z,20.25
2018-12-18T05:33:17.626Z,21.60
2018-12-18T05:35:46.889Z,16.00
2018-12-18T05:38:16.160Z,20.27
2018-12-18T05:40:45.414Z,18.62
2018-12-18T05:43:14.693Z,17.60
2018-12-18T05:45:43.948Z,20.85
2018-12-18T05:48:13.253Z,18.00
2018-12-18T05:50:42.514Z,21.62
2018-12-18T05:53:11.783Z,24.47
2018-12-18T05:55:41.046Z,19.62
2018-12-18T05:58:10.327Z,17.48
2018-12-18T06:00:39.582Z,17.77
2018-12-18T06:03:08.847Z,14.33
2018-12-18T06:05:38.115Z,19.48
2018-12-18T06:08:07.387Z,19.30
2018-12-18T06:10:36.653Z,19.20
2018-12-18T06:13:05.924Z,17.12
2018-12-18T06:15:35.175Z,16.32
2018-12-18T06:18:04.458Z,16.60
2018-12-18T06:20:53.316Z,18.75
2018-12-18T06:23:22.607Z,23.95
2018-12-18T06:25:51.854Z,16.17
2018-12-18T06:28:21.130Z,21.87
2018-12-18T06:30:50.389Z,16.73
2018-12-18T06:33:19.664Z,21.87
2018-12-18T06:35:48.924Z,19.55
2018-12-18T06:38:18.253Z,14.40
2018-12-18T06:40:47.530Z,16.62
2018-12-18T06:43:16.808Z,20.92
2018-12-18T06:45:46.072Z,13.13
2018-12-18T06:48:15.345Z,17.07
2018-12-18T06:50:44.605Z,18.37
2018-12-18T06:53:13.883Z,13.35
2018-12-18T06:55:43.146Z,17.12
2018-12-18T06:58:12.419Z,17.12
2018-12-18T07:00:41.696Z,14.35
2018-12-18T07:03:10.970Z,15.43
2018-12-18T07:05:40.223Z,13.83
2018-12-18T07:08:09.494Z,16.80
2018-12-18T07:10:38.745Z,18.60
2018-12-18T07:13:08.020Z,17.77
2018-12-18T07:15:37.276Z,22.37
2018-12-18T07:18:06.537Z,24.65
2018-12-18T07:20:35.814Z,19.48
2018-12-18T07:23:05.079Z,22.80
2018-12-18T07:25:34.357Z,17.90
2018-12-18T07:28:23.234Z,12.93
2018-12-18T07:30:52.499Z,19.62
2018-12-18T07:33:21.769Z,18.27
2018-12-18T07:35:51.037Z,16.37
2018-12-18T07:38:39.308Z,14.85
2018-12-18T07:41:08.574Z,22.67
2018-12-18T07:43:37.859Z,18.52
2018-12-18T07:46:07.128Z,21.65
2018-12-18T07:48:36.399Z,20.50
2018-12-18T07:51:05.654Z,22.52
2018-12-18T07:53:35.443Z,19.05
2018-12-18T07:56:05.085Z,15.93
2018-12-18T07:58:34.370Z,20.45
2018-12-18T08:01:03.627Z,18.62
2018-12-18T08:03:32.900Z,23.10
2018-12-18T08:06:02.170Z,16.35
2018-12-18T08:08:31.445Z,13.28
2018-12-18T08:11:00.707Z,22.10
2018-12-18T08:13:29.980Z,17.60
2018-12-18T08:15:59.255Z,16.77
2018-12-18T08:18:28.520Z,17.10
2018-12-18T08:20:57.796Z,14.18
2018-12-18T08:23:27.053Z,15.95
2018-12-18T08:25:56.328Z,12.07
2018-12-18T08:28:25.580Z,8.63
2018-12-18T08:30:54.854Z,11.90
2018-12-18T08:33:24.113Z,15.68
2018-12-18T08:35:53.390Z,12.78
2018-12-18T08:41:11.031Z,12.47
2018-12-18T08:43:40.329Z,16.12
2018-12-18T08:46:10.389Z,15.23
2018-12-18T08:48:39.802Z,12.25
2018-12-18T08:51:09.085Z,14.90
2018-12-18T08:53:38.352Z,13.75
2018-12-18T08:56:07.628Z,14.20
2018-12-18T08:58:36.898Z,15.28
2018-12-18T09:01:06.168Z,17.55
2018-12-18T09:03:35.460Z,18.35
2018-12-18T09:06:04.769Z,13.68
2018-12-18T09:08:34.035Z,13.05
2018-12-18T09:11:03.315Z,13.85
2018-12-18T09:13:32.583Z,15.55
2018-12-18T09:16:01.852Z,9.03
2018-12-18T09:18:31.113Z,16.12
2018-12-18T09:21:19.984Z,14.80
2018-12-18T09:23:49.241Z,9.13
2018-12-18T09:26:18.514Z,11.45
2018-12-18T09:28:47.100Z,16.37
2018-12-18T09:31:35.973Z,13.53
2018-12-18T09:34:05.374Z,16.57
2018-12-18T09:36:34.631Z,16.37
2018-12-18T09:39:23.500Z,13.35
2018-12-18T09:42:11.507Z,14.78
2018-12-18T09:44:40.791Z,16.02
2018-12-18T09:47:10.064Z,17.90
2018-12-18T09:49:39.336Z,18.73
2018-12-18T09:52:08.605Z,13.22
2018-12-18T09:54:37.884Z,14.18
2018-12-18T09:57:25.895Z,11.83
2018-12-18T09:59:55.172Z,14.05
2018-12-18T10:02:24.428Z,20.52
2018-12-18T10:04:53.699Z,14.87
2018-12-18T10:07:22.960Z,14.60
2018-12-18T10:09:52.242Z,15.78
2018-12-18T10:12:40.231Z,20.97
2018-12-18T10:15:09.519Z,14.07
2018-12-18T10:17:38.792Z,20.45
2018-12-18T10:20:08.117Z,18.55
2018-12-18T10:22:37.376Z,16.52
2018-12-18T10:25:06.671Z,23.50
2018-12-18T10:27:35.923Z,14.87
2018-12-18T10:30:05.434Z,12.00
2018-12-18T10:32:34.711Z,21.75
2018-12-18T10:35:03.963Z,12.90
2018-12-18T10:37:33.251Z,16.75
2018-12-18T10:40:02.572Z,18.50
2018-12-18T10:42:31.836Z,19.25
2018-12-18T10:45:01.113Z,12.00
2018-12-18T10:47:30.387Z,12.98
2018-12-18T10:49:59.649Z,13.60
2018-12-18T10:52:28.919Z,17.73
2018-12-18T10:54:58.183Z,19.80
2018-12-18T10:57:27.457Z,18.48
2018-12-18T11:00:16.358Z,19.17
2018-12-18T11:02:45.932Z,14.10
2018-12-18T11:05:15.200Z,15.28
2018-12-18T11:07:44.470Z,14.20
2018-12-18T11:10:13.732Z,15.93
2018-12-18T11:13:01.753Z,20.60
2018-12-18T11:15:31.009Z,17.37
2018-12-18T11:18:00.329Z,16.50
2018-12-18T11:20:29.649Z,12.63
2018-12-18T11:22:58.912Z,14.53
2018-12-18T11:25:28.165Z,15.45
2018-12-18T11:27:57.502Z,16.15
2018-12-18T11:35:49.871Z,13.98
2018-12-18T11:38:19.140Z,17.80
2018-12-18T11:40:48.396Z,24.47
2018-12-18T11:43:17.683Z,21.57
2018-12-18T11:45:46.957Z,17.82
2018-12-18T11:48:16.243Z,13.08
2018-12-18T11:50:45.501Z,19.17
2018-12-18T11:53:14.768Z,15.05
2018-12-18T11:55:44.099Z,15.50
2018-12-18T11:58:13.380Z,14.93
2018-12-18T12:00:49.872Z,18.02
2018-12-18T12:03:19.146Z,14.85
2018-12-18T12:05:48.404Z,16.02
2018-12-18T12:08:17.713Z,16.82
2018-12-18T12:10:46.982Z,19.73
2018-12-18T12:13:16.261Z,16.37
2018-12-18T12:15:45.510Z,16.30
2018-12-18T12:18:14.773Z,11.70
2018-12-18T12:20:44.026Z,19.02
2018-12-18T12:23:13.295Z,17.73
2018-12-18T12:25:42.564Z,14.00
2018-12-18T12:28:11.827Z,15.43
2018-12-18T12:30:41.110Z,21.55
2018-12-18T12:33:10.380Z,18.37
2018-12-18T12:35:39.634Z,18.10
2018-12-18T12:38:08.903Z,16.07
2018-12-18T12:40:38.151Z,13.85
2018-12-18T12:43:07.522Z,14.63
2018-12-18T12:45:36.794Z,15.05
2018-12-18T12:48:24.813Z,15.03
2018-12-18T12:50:54.075Z,18.80
2018-12-18T12:53:23.354Z,19.15
2018-12-18T12:55:52.616Z,11.97
2018-12-18T12:58:21.881Z,16.70
2018-12-18T13:00:51.151Z,15.98
2018-12-18T13:03:20.418Z,13.85
2018-12-18T13:05:49.687Z,10.43
2018-12-18T13:08:19.021Z,10.72
2018-12-18T13:10:48.295Z,13.35
2018-12-18T13:13:17.556Z,9.48
2018-12-18T13:15:46.832Z,20.05
2018-12-18T13:18:16.086Z,15.45
2018-12-18T13:20:45.356Z,16.17
2018-12-18T13:23:14.615Z,12.25
2018-12-18T13:25:43.898Z,11.93
2018-12-18T13:28:13.155Z,11.70
2018-12-18T13:30:42.424Z,13.20
2018-12-18T13:33:11.697Z,12.45
2018-12-18T13:35:40.971Z,11.95
2018-12-18T13:38:10.325Z,9.50
2018-12-18T13:40:39.584Z,8.03
2018-12-18T13:43:28.442Z,10.78
2018-12-18T13:46:17.335Z,6.97
2018-12-18T13:48:46.599Z,9.80
2018-12-18T13:51:15.881Z,11.20
2018-12-18T13:53:45.131Z,12.45
2018-12-18T13:56:14.408Z,10.15
2018-12-18T13:58:43.674Z,11.78
2018-12-18T14:01:13.002Z,5.75
2018-12-18T14:03:42.259Z,8.60
2018-12-18T14:06:11.547Z,8.40
2018-12-18T14:08:40.798Z,12.20
2018-12-18T14:11:10.068Z,6.40
2018-12-18T14:13:39.343Z,11.28
2018-12-18T14:16:08.620Z,6.10
2018-12-18T14:18:37.876Z,12.35
2018-12-18T14:21:26.748Z,6.70
2018-12-18T14:23:56.009Z,5.83
2018-12-18T14:26:25.286Z,10.93
2018-12-18T14:28:54.549Z,7.25
2018-12-18T14:31:23.821Z,11.35
2018-12-18T14:33:53.088Z,7.70
2018-12-18T14:36:22.351Z,8.28
2018-12-18T14:38:51.605Z,5.28
2018-12-18T14:41:20.880Z,13.25
2018-12-18T14:43:50.142Z,10.75
2018-12-18T14:46:19.427Z,6.37
2018-12-18T14:48:48.680Z,8.70
2018-12-18T14:51:17.936Z,8.80
2018-12-18T14:53:47.192Z,5.65
2018-12-18T14:56:16.501Z,10.23
2018-12-18T14:58:45.761Z,7.35
2018-12-18T15:01:15.031Z,10.38
2018-12-18T15:03:44.296Z,5.22
2018-12-18T15:06:13.559Z,6.92
2018-12-18T15:08:42.825Z,10.65
2018-12-18T15:11:12.090Z,8.75
2018-12-18T15:13:41.343Z,6.17
2018-12-18T15:16:10.618Z,7.40
2018-12-18T15:18:39.874Z,6.95
2018-12-18T15:21:09.159Z,8.43
2018-12-18T15:23:38.410Z,9.43
2018-12-18T15:26:07.677Z,7.78
2018-12-18T15:28:36.928Z,8.90
2018-12-18T15:31:06.210Z,7.75
2018-12-18T15:33:35.521Z,7.03
2018-12-18T15:36:04.790Z,5.50
2018-12-18T15:38:34.033Z,6.92
2018-12-18T15:41:03.297Z,7.28
2018-12-18T15:43:32.555Z,6.92
2018-12-18T15:46:01.826Z,7.37
2018-12-18T15:48:31.099Z,7.28
2018-12-18T15:51:00.367Z,6.47
2018-12-18T15:53:29.621Z,6.12
2018-12-18T15:55:58.891Z,6.67
2018-12-18T15:58:28.146Z,3.80
2018-12-18T16:01:16.462Z,4.70
2018-12-18T16:03:45.728Z,7.08
2018-12-18T16:06:14.991Z,7.75
2018-12-18T16:08:44.248Z,7.25
2018-12-18T16:11:13.517Z,6.20
2018-12-18T16:13:42.776Z,5.40
2018-12-18T16:16:12.056Z,6.47
2018-12-18T16:18:41.307Z,7.10
2018-12-18T16:21:10.586Z,8.30
2018-12-18T16:23:39.848Z,7.87
2018-12-18T16:26:09.212Z,4.55
2018-12-18T16:28:38.470Z,4.53
2018-12-18T16:31:07.733Z,8.53
2018-12-18T16:33:36.992Z,5.97
2018-12-18T16:36:06.260Z,6.50
2018-12-18T16:38:35.505Z,4.97
2018-12-18T16:41:04.766Z,5.10
2018-12-18T16:43:34.019Z,4.62
2018-12-18T16:46:03.269Z,6.50
2018-12-18T16:48:32.564Z,7.00
2018-12-18T16:51:01.831Z,3.95
2018-12-18T16:53:31.094Z,5.58
2018-12-18T16:56:00.361Z,10.48
2018-12-18T16:58:29.633Z,4.55
2018-12-18T17:00:58.894Z,6.92
2018-12-18T17:03:28.166Z,3.83
2018-12-18T17:05:57.414Z,6.70
2018-12-18T17:08:26.679Z,7.12
2018-12-18T17:10:55.934Z,7.30
2018-12-18T17:13:25.202Z,3.92
2018-12-18T17:15:54.489Z,7.97
2018-12-18T17:18:23.740Z,5.35
2018-12-18T17:20:53.004Z,7.60
2018-12-18T17:23:22.287Z,3.40
2018-12-18T17:25:51.537Z,3.22
2018-12-18T17:28:20.798Z,6.25
2018-12-18T17:30:50.047Z,6.95
2018-12-18T17:33:19.307Z,6.65
2018-12-18T17:35:48.645Z,7.08
2018-12-18T17:38:17.989Z,6.22
2018-12-18T17:40:47.426Z,7.42
2018-12-18T17:45:52.346Z,6.65
2018-12-18T17:48:21.625Z,4.28
2018-12-18T17:50:50.871Z,5.62
2018-12-18T17:53:20.139Z,5.97
2018-12-18T17:55:49.386Z,5.97
2018-12-18T17:58:18.664Z,4.75
2018-12-18T18:00:47.917Z,5.85
2018-12-18T18:03:17.285Z,7.03
2018-12-18T18:05:46.549Z,5.72
2018-12-18T18:08:15.811Z,5.08
2018-12-18T18:10:45.061Z,7.05
2018-12-18T18:13:14.322Z,3.92
2018-12-18T18:15:43.572Z,3.85
2018-12-18T18:18:12.844Z,4.35
2018-12-18T18:20:42.099Z,3.75
2018-12-18T18:23:11.471Z,5.65
2018-12-18T18:25:40.722Z,5.92
2018-12-18T18:28:09.979Z,4.00
2018-12-18T18:30:58.830Z,4.72
2018-12-18T18:33:28.139Z,4.78
2018-12-18T18:35:57.384Z,6.15
2018-12-18T18:38:26.695Z,6.22
2018-12-18T18:40:55.966Z,5.42
2018-12-18T18:43:25.237Z,6.78
2018-12-18T18:45:54.487Z,6.60
2018-12-18T18:48:23.780Z,7.83
2018-12-18T18:50:53.827Z,5.97
2018-12-18T18:53:23.211Z,4.60
2018-12-18T18:55:52.472Z,7.15
2018-12-18T18:58:21.739Z,4.03
2018-12-18T19:00:51.050Z,4.17
2018-12-18T19:03:20.327Z,4.42
2018-12-18T19:05:49.586Z,6.25
2018-12-18T19:08:18.846Z,5.33
2018-12-18T19:10:48.098Z,3.50
2018-12-18T19:13:17.379Z,4.60
2018-12-18T19:15:46.630Z,6.05
2018-12-18T19:18:15.903Z,7.90
2018-12-18T19:20:45.162Z,7.22
2018-12-18T19:23:14.421Z,7.75
2018-12-18T19:25:43.699Z,8.20
2018-12-18T19:28:13.027Z,5.58
2018-12-18T19:30:42.231Z,4.15
2018-12-18T19:33:36.700Z,9.10
2018-12-18T19:36:01.250Z,5.12
2018-12-18T19:38:30.532Z,4.08
2018-12-18T19:40:59.789Z,4.50
2018-12-18T19:43:29.054Z,5.58
2018-12-18T19:45:58.315Z,6.15
2018-12-18T19:51:16.909Z,5.45
2018-12-18T19:53:46.187Z,7.75
2018-12-18T19:56:15.437Z,6.97
2018-12-18T19:58:44.738Z,5.60
2018-12-18T20:01:14.000Z,5.67
2018-12-18T20:03:43.251Z,6.30
2018-12-18T20:06:12.521Z,6.85
2018-12-18T20:08:41.768Z,5.00
2018-12-18T20:11:11.039Z,8.53
2018-12-18T20:13:40.292Z,6.05
2018-12-18T20:16:09.559Z,6.70
2018-12-18T20:18:38.806Z,7.17
2018-12-18T20:21:08.069Z,5.97
2018-12-18T20:23:37.340Z,7.28
2018-12-18T20:28:42.194Z,7.50
2018-12-18T20:31:30.516Z,4.70
2018-12-18T20:33:59.772Z,5.55
2018-12-18T20:36:29.031Z,8.58
2018-12-18T20:38:58.287Z,9.20
2018-12-18T20:41:27.566Z,5.90
2018-12-18T20:43:56.823Z,8.83
2018-12-18T20:46:26.091Z,6.33
2018-12-18T20:48:55.362Z,5.22
2018-12-18T20:51:24.634Z,8.08
2018-12-18T20:53:53.892Z,5.55
2018-12-18T20:56:23.179Z,10.38
2018-12-18T20:58:52.421Z,6.80
2018-12-18T21:01:21.691Z,5.53
2018-12-18T21:03:50.948Z,4.08
2018-12-18T21:06:20.337Z,6.20
2018-12-18T21:08:49.725Z,10.18
2018-12-18T21:11:19.121Z,8.40
2018-12-18T21:13:48.524Z,6.53
2018-12-18T21:16:17.925Z,9.60
2018-12-18T21:18:47.316Z,8.85
2018-12-18T21:21:16.696Z,6.10
2018-12-18T21:23:46.089Z,8.10
2018-12-18T21:26:15.555Z,6.83
2018-12-18T21:28:44.933Z,5.40
2018-12-18T21:31:14.382Z,5.90
2018-12-18T21:33:43.804Z,9.40
2018-12-18T21:36:13.180Z,7.03
2018-12-18T21:38:42.565Z,7.08
2018-12-18T21:41:11.956Z,9.35
2018-12-18T21:43:41.411Z,7.30
2018-12-18T21:46:10.800Z,7.50
2018-12-18T21:48:40.208Z,8.33
2018-12-18T21:51:09.573Z,4.47
2018-12-18T21:53:38.969Z,6.10
2018-12-18T21:56:08.358Z,5.72
2018-12-18T21:58:37.771Z,5.83
2018-12-18T22:01:07.153Z,6.20
2018-12-18T22:06:12.293Z,6.37
2018-12-18T22:08:41.687Z,5.70
2018-12-18T22:11:11.062Z,7.10
2018-12-18T22:13:40.461Z,11.45
2018-12-18T22:16:09.846Z,7.80
2018-12-18T22:18:39.249Z,10.72
2018-12-18T22:21:08.634Z,4.72
2018-12-18T22:23:38.022Z,7.58
2018-12-18T22:26:07.364Z,11.10
2018-12-18T22:28:36.637Z,11.10
2018-12-18T22:31:05.898Z,4.33
2018-12-18T22:33:35.166Z,6.55
2018-12-18T22:36:04.424Z,6.28
2018-12-18T22:38:33.687Z,6.20
2018-12-18T22:41:02.935Z,4.70
2018-12-18T22:43:32.235Z,7.35
2018-12-18T22:46:01.487Z,7.45
2018-12-18T22:48:30.763Z,4.50
2018-12-18T22:51:00.016Z,7.37
2018-12-18T22:53:29.298Z,6.50
2018-12-18T22:55:58.550Z,6.97
2018-12-18T22:58:27.824Z,11.70
2018-12-18T23:01:15.799Z,8.15
2018-12-18T23:03:45.076Z,8.45
2018-12-18T23:06:14.391Z,3.72
2018-12-18T23:08:50.036Z,7.72
2018-12-18T23:11:13.822Z,6.00
2018-12-18T23:13:43.122Z,9.75
2018-12-18T23:16:12.379Z,6.15
2018-12-18T23:18:41.641Z,10.00
2018-12-18T23:21:10.914Z,9.73
2018-12-18T23:23:40.168Z,4.50
2018-12-18T23:26:28.495Z,12.03
2018-12-18T23:28:57.746Z,7.75
2018-12-18T23:31:27.010Z,8.58
2018-12-18T23:33:56.273Z,8.68
2018-12-18T23:36:25.543Z,6.58
2018-12-18T23:38:57.092Z,9.45
2018-12-18T23:41:24.984Z,8.18
2018-12-18T23:43:54.220Z,7.65
2018-12-18T23:46:23.513Z,9.65
2018-12-18T23:48:52.769Z,10.48
2018-12-18T23:51:22.035Z,7.72
2018-12-18T23:53:51.292Z,10.13
2018-12-18T23:56:20.580Z,9.23
2018-12-18T23:58:49.839Z,9.53
